Terminal Aerodrome Forecast
Issued by NWS

Home | Current Version | Previous Version | Graphics & Text | Print | Product List | Glossary On
Versions: 1 2 3 4 5 6 7 8 9 10 11 12 13 14 15 16 17 18 19 20 21 22 23 24 25
443
FTUS43 KLOT 212039 AAB
TAFORD
TAF AMD
KORD 212039Z 2121/2224 32015G22KT P6SM FEW040 BKN100
     FM220000 32012KT P6SM FEW040
     FM220300 31008KT P6SM FEW020
     FM221500 27005KT P6SM SCT250=

USA.gov is the U.S. government's official web portal to all federal, state and local government web resources and services.